sensor_id;sensor_type;location;lat;lon;timestamp;P1;durP1;ratioP1;P2;durP2;ratioP2
71610;SDS011;59459;51.172;6.682;2023-01-09T00:00:36;2.37;;;0.50;;
71610;SDS011;59459;51.172;6.682;2023-01-09T00:03:01;2.40;;;0.50;;
71610;SDS011;59459;51.172;6.682;2023-01-09T00:05:26;2.10;;;0.40;;
71610;SDS011;59459;51.172;6.682;2023-01-09T00:07:51;1.17;;;0.50;;
71610;SDS011;59459;51.172;6.682;2023-01-09T00:10:16;0.93;;;0.50;;
71610;SDS011;59459;51.172;6.682;2023-01-09T00:12:42;1.80;;;0.50;;
71610;SDS011;59459;51.172;6.682;2023-01-09T00:15:07;0.77;;;0.40;;
71610;SDS011;59459;51.172;6.682;2023-01-09T00:17:32;1.50;;;0.50;;
71610;SDS011;59459;51.172;6.682;2023-01-09T00:19:58;1.27;;;0.63;;
71610;SDS011;59459;51.172;6.682;2023-01-09T00:22:23;1.37;;;0.40;;
71610;SDS011;59459;51.172;6.682;2023-01-09T00:24:48;2.10;;;0.43;;
71610;SDS011;59459;51.172;6.682;2023-01-09T00:27:13;0.60;;;0.30;;
71610;SDS011;59459;51.172;6.682;2023-01-09T00:29:39;0.90;;;0.40;;
71610;SDS011;59459;51.172;6.682;2023-01-09T00:32:05;1.85;;;0.30;;
71610;SDS011;59459;51.172;6.682;2023-01-09T00:34:34;0.85;;;0.28;;
71610;SDS011;59459;51.172;6.682;2023-01-09T00:37:01;1.13;;;0.23;;
71610;SDS011;59459;51.172;6.682;2023-01-09T00:39:26;1.02;;;0.30;;
71610;SDS011;59459;51.172;6.682;2023-01-09T00:41:52;1.57;;;0.30;;
71610;SDS011;59459;51.172;6.682;2023-01-09T00:44:22;0.60;;;0.30;;
71610;SDS011;59459;51.172;6.682;2023-01-09T00:46:54;1.25;;;0.50;;
71610;SDS011;59459;51.172;6.682;2023-01-09T00:49:20;1.20;;;0.30;;
71610;SDS011;59459;51.172;6.682;2023-01-09T00:51:45;1.20;;;0.40;;
71610;SDS011;59459;51.172;6.682;2023-01-09T00:54:11;0.40;;;0.30;;
71610;SDS011;59459;51.172;6.682;2023-01-09T00:56:37;0.80;;;0.28;;
71610;SDS011;59459;51.172;6.682;2023-01-09T00:59:03;4.63;;;0.43;;
71610;SDS011;59459;51.172;6.682;2023-01-09T01:01:28;2.70;;;0.30;;
71610;SDS011;59459;51.172;6.682;2023-01-09T01:03:53;0.50;;;0.30;;
71610;SDS011;59459;51.172;6.682;2023-01-09T01:06:19;0.73;;;0.38;;
71610;SDS011;59459;51.172;6.682;2023-01-09T01:09:03;3.70;;;0.30;;
71610;SDS011;59459;51.172;6.682;2023-01-09T01:11:28;1.50;;;0.40;;
71610;SDS011;59459;51.172;6.682;2023-01-09T01:13:55;2.67;;;0.40;;
71610;SDS011;59459;51.172;6.682;2023-01-09T01:16:20;2.03;;;0.30;;
71610;SDS011;59459;51.172;6.682;2023-01-09T01:18:45;2.07;;;0.50;;
71610;SDS011;59459;51.172;6.682;2023-01-09T01:21:11;1.27;;;0.43;;
71610;SDS011;59459;51.172;6.682;2023-01-09T01:23:37;2.03;;;0.40;;
71610;SDS011;59459;51.172;6.682;2023-01-09T01:26:03;1.10;;;0.50;;
71610;SDS011;59459;51.172;6.682;2023-01-09T01:28:29;2.83;;;0.68;;
71610;SDS011;59459;51.172;6.682;2023-01-09T01:30:54;0.90;;;0.30;;
71610;SDS011;59459;51.172;6.682;2023-01-09T01:33:19;0.80;;;0.30;;
71610;SDS011;59459;51.172;6.682;2023-01-09T01:35:44;1.53;;;0.40;;
71610;SDS011;59459;51.172;6.682;2023-01-09T01:38:09;0.57;;;0.30;;
71610;SDS011;59459;51.172;6.682;2023-01-09T01:40:35;1.17;;;0.30;;
71610;SDS011;59459;51.172;6.682;2023-01-09T01:43:02;1.08;;;0.30;;
71610;SDS011;59459;51.172;6.682;2023-01-09T01:45:27;2.50;;;0.40;;
71610;SDS011;59459;51.172;6.682;2023-01-09T01:47:55;3.50;;;0.40;;
71610;SDS011;59459;51.172;6.682;2023-01-09T01:50:24;0.80;;;0.40;;
71610;SDS011;59459;51.172;6.682;2023-01-09T01:52:54;1.13;;;0.30;;
71610;SDS011;59459;51.172;6.682;2023-01-09T01:55:22;1.95;;;0.40;;
71610;SDS011;59459;51.172;6.682;2023-01-09T01:57:49;2.00;;;0.40;;
71610;SDS011;59459;51.172;6.682;2023-01-09T02:00:15;1.63;;;0.50;;
71610;SDS011;59459;51.172;6.682;2023-01-09T02:02:40;1.42;;;0.50;;
71610;SDS011;59459;51.172;6.682;2023-01-09T02:05:07;1.35;;;0.50;;
71610;SDS011;59459;51.172;6.682;2023-01-09T02:07:33;1.60;;;0.43;;
71610;SDS011;59459;51.172;6.682;2023-01-09T02:09:58;1.13;;;0.40;;
71610;SDS011;59459;51.172;6.682;2023-01-09T02:12:25;1.50;;;0.30;;
71610;SDS011;59459;51.172;6.682;2023-01-09T02:14:53;1.23;;;0.30;;
71610;SDS011;59459;51.172;6.682;2023-01-09T02:34:52;2.40;;;0.70;;
71610;SDS011;59459;51.172;6.682;2023-01-09T02:39:55;2.25;;;0.60;;
71610;SDS011;59459;51.172;6.682;2023-01-09T02:42:24;2.47;;;0.70;;
71610;SDS011;59459;51.172;6.682;2023-01-09T02:44:50;3.13;;;0.93;;
71610;SDS011;59459;51.172;6.682;2023-01-09T02:49:45;3.35;;;1.05;;
71610;SDS011;59459;51.172;6.682;2023-01-09T02:54:45;2.97;;;0.70;;
71610;SDS011;59459;51.172;6.682;2023-01-09T02:57:17;2.60;;;0.80;;
71610;SDS011;59459;51.172;6.682;2023-01-09T03:02:22;5.87;;;1.20;;
71610;SDS011;59459;51.172;6.682;2023-01-09T03:07:26;3.90;;;1.00;;
71610;SDS011;59459;51.172;6.682;2023-01-09T03:09:54;3.53;;;0.90;;
71610;SDS011;59459;51.172;6.682;2023-01-09T03:12:21;4.07;;;0.85;;
71610;SDS011;59459;51.172;6.682;2023-01-09T03:14:49;6.35;;;1.02;;
71610;SDS011;59459;51.172;6.682;2023-01-09T03:17:18;3.35;;;0.88;;
71610;SDS011;59459;51.172;6.682;2023-01-09T03:19:46;2.35;;;0.70;;
71610;SDS011;59459;51.172;6.682;2023-01-09T03:22:13;5.00;;;1.00;;
71610;SDS011;59459;51.172;6.682;2023-01-09T03:24:38;2.77;;;0.67;;
71610;SDS011;59459;51.172;6.682;2023-01-09T03:27:05;6.57;;;1.10;;
71610;SDS011;59459;51.172;6.682;2023-01-09T03:29:31;8.15;;;1.23;;
71610;SDS011;59459;51.172;6.682;2023-01-09T03:31:56;4.47;;;0.93;;
71610;SDS011;59459;51.172;6.682;2023-01-09T03:34:21;3.00;;;0.90;;
71610;SDS011;59459;51.172;6.682;2023-01-09T03:36:46;4.63;;;1.60;;
71610;SDS011;59459;51.172;6.682;2023-01-09T03:39:11;3.03;;;0.77;;
71610;SDS011;59459;51.172;6.682;2023-01-09T03:41:37;5.57;;;1.23;;
71610;SDS011;59459;51.172;6.682;2023-01-09T03:44:02;3.73;;;0.93;;
71610;SDS011;59459;51.172;6.682;2023-01-09T03:46:27;3.77;;;1.10;;
71610;SDS011;59459;51.172;6.682;2023-01-09T03:48:52;6.97;;;1.37;;
71610;SDS011;59459;51.172;6.682;2023-01-09T03:51:17;4.17;;;0.83;;
71610;SDS011;59459;51.172;6.682;2023-01-09T03:53:43;4.33;;;0.93;;
71610;SDS011;59459;51.172;6.682;2023-01-09T03:56:08;4.83;;;0.80;;
71610;SDS011;59459;51.172;6.682;2023-01-09T03:58:33;3.00;;;1.13;;
71610;SDS011;59459;51.172;6.682;2023-01-09T04:00:59;7.47;;;1.00;;
71610;SDS011;59459;51.172;6.682;2023-01-09T04:03:25;3.50;;;1.00;;
71610;SDS011;59459;51.172;6.682;2023-01-09T04:05:50;6.70;;;1.50;;
71610;SDS011;59459;51.172;6.682;2023-01-09T04:08:15;3.67;;;1.10;;
71610;SDS011;59459;51.172;6.682;2023-01-09T04:10:44;5.80;;;1.35;;
71610;SDS011;59459;51.172;6.682;2023-01-09T04:13:09;5.20;;;0.87;;
71610;SDS011;59459;51.172;6.682;2023-01-09T04:15:34;3.67;;;0.90;;
71610;SDS011;59459;51.172;6.682;2023-01-09T04:18:00;2.83;;;0.77;;
71610;SDS011;59459;51.172;6.682;2023-01-09T04:20:26;5.57;;;0.70;;
71610;SDS011;59459;51.172;6.682;2023-01-09T04:22:51;3.20;;;0.90;;
71610;SDS011;59459;51.172;6.682;2023-01-09T04:25:16;6.33;;;1.10;;
71610;SDS011;59459;51.172;6.682;2023-01-09T04:27:41;4.33;;;1.20;;
71610;SDS011;59459;51.172;6.682;2023-01-09T04:30:07;5.33;;;1.00;;
71610;SDS011;59459;51.172;6.682;2023-01-09T04:32:32;4.25;;;0.70;;
71610;SDS011;59459;51.172;6.682;2023-01-09T04:34:57;4.63;;;1.10;;
71610;SDS011;59459;51.172;6.682;2023-01-09T04:37:22;6.00;;;0.80;;
71610;SDS011;59459;51.172;6.682;2023-01-09T04:39:48;4.07;;;0.60;;
71610;SDS011;59459;51.172;6.682;2023-01-09T04:42:14;3.53;;;0.80;;
71610;SDS011;59459;51.172;6.682;2023-01-09T04:44:39;2.47;;;0.57;;
71610;SDS011;59459;51.172;6.682;2023-01-09T04:47:04;2.77;;;0.60;;
71610;SDS011;59459;51.172;6.682;2023-01-09T04:49:29;2.97;;;0.60;;
71610;SDS011;59459;51.172;6.682;2023-01-09T04:51:55;2.60;;;0.60;;
71610;SDS011;59459;51.172;6.682;2023-01-09T04:54:20;2.20;;;0.53;;
71610;SDS011;59459;51.172;6.682;2023-01-09T04:56:45;2.60;;;0.70;;
71610;SDS011;59459;51.172;6.682;2023-01-09T04:59:11;3.33;;;0.80;;
71610;SDS011;59459;51.172;6.682;2023-01-09T05:01:36;4.85;;;0.60;;
71610;SDS011;59459;51.172;6.682;2023-01-09T05:04:02;5.07;;;1.07;;
71610;SDS011;59459;51.172;6.682;2023-01-09T05:06:27;2.80;;;0.60;;
71610;SDS011;59459;51.172;6.682;2023-01-09T05:08:52;9.73;;;0.83;;
71610;SDS011;59459;51.172;6.682;2023-01-09T05:11:18;3.77;;;0.50;;
71610;SDS011;59459;51.172;6.682;2023-01-09T05:13:43;2.80;;;0.50;;
71610;SDS011;59459;51.172;6.682;2023-01-09T05:16:08;2.97;;;0.60;;
71610;SDS011;59459;51.172;6.682;2023-01-09T05:18:34;3.60;;;0.63;;
71610;SDS011;59459;51.172;6.682;2023-01-09T05:20:59;5.70;;;0.80;;
71610;SDS011;59459;51.172;6.682;2023-01-09T05:23:25;2.63;;;0.67;;
71610;SDS011;59459;51.172;6.682;2023-01-09T05:25:50;6.10;;;0.60;;
71610;SDS011;59459;51.172;6.682;2023-01-09T05:28:15;4.70;;;0.73;;
71610;SDS011;59459;51.172;6.682;2023-01-09T05:30:40;6.40;;;0.70;;
71610;SDS011;59459;51.172;6.682;2023-01-09T05:33:05;3.43;;;0.73;;
71610;SDS011;59459;51.172;6.682;2023-01-09T05:35:31;4.70;;;0.70;;
71610;SDS011;59459;51.172;6.682;2023-01-09T05:37:56;8.00;;;0.60;;
71610;SDS011;59459;51.172;6.682;2023-01-09T05:40:22;4.10;;;0.67;;
71610;SDS011;59459;51.172;6.682;2023-01-09T05:42:47;2.70;;;0.67;;
71610;SDS011;59459;51.172;6.682;2023-01-09T05:45:12;4.20;;;0.83;;
71610;SDS011;59459;51.172;6.682;2023-01-09T05:47:38;4.40;;;0.70;;
71610;SDS011;59459;51.172;6.682;2023-01-09T05:50:03;6.97;;;0.97;;
71610;SDS011;59459;51.172;6.682;2023-01-09T05:52:28;4.50;;;1.17;;
71610;SDS011;59459;51.172;6.682;2023-01-09T05:54:54;5.50;;;0.50;;
